Time;durP1;ratioP1;P1;durP2;ratioP2;P2;SDS_P1;SDS_P2;PMS_P1;PMS_P2;Temp;Humidity;BMP_temperature;BMP_pressure;BME280_temperature;BME280_humidity;BME280_pressure;Samples;Min_cycle;Max_cycle;Signal;HPM_P1;HPM_P2
2021/12/19 00:11:08;;;;;;;64.63;54.20;;;;;;;6.57;95.45;102914.53;4880678;29;20060;-84
2021/12/19 00:14:15;;;;;;;;;;;;;;;;;;;;;
2021/12/19 00:53:30;;;;;;;58.00;51.78;;;;;;;6.55;95.15;102901.69;5020803;28;20038;-85
2021/12/19 00:56:11;;;;;;;56.08;50.35;;;;;;;6.56;95.71;102887.25;4986281;28;20068;-86
2021/12/19 00:58:49;;;;;;;60.28;51.85;;;;;;;6.64;94.77;102880.59;4984663;28;20042;-85
2021/12/19 01:01:18;;;;;;;57.30;50.78;;;;;;;6.59;94.36;102871.97;4982242;28;20049;-85
2021/12/19 01:03:53;;;;;;;57.15;51.17;;;;;;;6.38;94.24;102852.75;4977206;28;20019;-86
2021/12/19 01:06:39;;;;;;;56.58;50.47;;;;;;;6.47;94.36;102870.00;4975230;28;20034;-86
2021/12/19 01:09:09;;;;;;;57.65;51.55;;;;;;;6.28;93.86;102815.91;4950873;28;20038;-86
2021/12/19 01:11:41;;;;;;;63.75;51.83;;;;;;;6.25;93.96;102814.97;4964115;28;20094;-86
2021/12/19 01:14:12;;;;;;;59.22;50.75;;;;;;;6.33;94.44;102829.66;4963402;28;20031;-87
2021/12/19 01:16:41;;;;;;;64.20;52.28;;;;;;;6.35;94.25;102827.97;4978762;28;20031;-86
2021/12/19 01:19:07;;;;;;;57.53;51.42;;;;;;;6.40;93.86;102834.91;4962414;28;20041;-86
2021/12/19 01:21:35;;;;;;;57.70;51.50;;;;;;;6.45;92.94;102823.09;4963485;28;20047;-86
2021/12/19 01:24:00;;;;;;;57.95;50.85;;;;;;;6.27;93.22;102793.72;4965892;28;20022;-87
2021/12/19 01:26:39;;;;;;;56.55;50.58;;;;;;;6.41;93.08;102823.84;4967659;28;20045;-87
2021/12/19 01:29:18;;;;;;;58.05;51.67;;;;;;;6.21;93.40;102805.50;4967834;28;20150;-87
2021/12/19 01:31:48;;;;;;;56.72;50.65;;;;;;;6.54;93.19;102823.28;4968151;28;20042;-86
2021/12/19 01:34:22;;;;;;;65.88;51.50;;;;;;;6.38;92.77;102826.31;4969312;28;20026;-86
2021/12/19 01:36:57;;;;;;;62.20;51.17;;;;;;;6.42;92.55;102817.91;4966121;28;20027;-86
2021/12/19 01:39:25;;;;;;;57.28;51.38;;;;;;;6.39;93.21;102831.47;4963461;28;20035;-85
2021/12/19 01:42:17;;;;;;;57.45;50.90;;;;;;;6.57;92.71;102853.16;4964800;28;20022;-86
2021/12/19 01:44:54;;;;;;;57.78;51.30;;;;;;;6.58;92.79;102845.53;4963998;28;20511;-86
2021/12/19 01:47:36;;;;;;;56.92;50.78;;;;;;;6.47;92.79;102821.41;4975091;28;20090;-84
2021/12/19 01:50:12;;;;;;;56.90;51.00;;;;;;;6.42;93.36;102820.47;4980042;28;20035;-87
2021/12/19 01:53:11;;;;;;;56.87;50.83;;;;;;;6.68;92.80;102836.34;4968244;28;20104;-86
2021/12/19 01:55:45;;;;;;;57.53;50.78;;;;;;;6.57;92.73;102828.47;4987075;28;20026;-85
2021/12/19 01:58:37;;;;;;;66.15;52.67;;;;;;;6.66;93.60;102838.88;4986373;28;20120;-85
2021/12/19 02:04:42;;;;;;;58.80;51.67;;;;;;;6.58;93.05;102814.84;5008816;28;20029;-86
2021/12/19 02:10:40;;;;;;;63.42;52.33;;;;;;;6.71;93.53;102808.28;5003928;28;20045;-84
2021/12/19 02:13:20;;;;;;;63.67;52.97;;;;;;;6.35;93.95;102760.66;4964955;28;20410;-87
2021/12/19 02:16:20;;;;;;;60.80;52.17;;;;;;;6.66;93.92;102828.63;4981646;28;20477;-86
2021/12/19 02:18:48;;;;;;;59.20;52.13;;;;;;;6.64;94.36;102814.13;4981826;28;20031;-86
2021/12/19 02:21:20;;;;;;;58.03;51.85;;;;;;;6.47;94.43;102788.19;4964183;28;20026;-86
2021/12/19 02:26:40;;;;;;;56.53;50.75;;;;;;;6.48;94.71;102783.09;4982837;28;20038;-85
2021/12/19 02:29:26;;;;;;;56.53;50.55;;;;;;;6.49;93.53;102777.16;4979578;28;20137;-87
2021/12/19 02:31:54;;;;;;;57.13;51.13;;;;;;;6.62;94.00;102801.28;4980635;28;20023;-87
2021/12/19 02:34:24;;;;;;;58.08;51.75;;;;;;;6.43;93.28;102765.94;4960167;28;20065;-86
2021/12/19 02:38:17;;;;;;;63.03;51.25;;;;;;;6.39;93.57;102788.00;4979903;28;20037;-85
2021/12/19 02:48:11;;;;;;;63.08;53.20;;;;;;;6.46;92.46;102766.00;4982512;28;20057;-87
2021/12/19 02:51:06;;;;;;;58.03;51.53;;;;;;;6.59;93.49;102798.66;4964643;28;20121;-86
2021/12/19 02:53:39;;;;;;;57.30;51.20;;;;;;;6.41;93.80;102770.16;4943987;29;20031;-85
2021/12/19 02:56:11;;;;;;;56.72;50.67;;;;;;;6.38;94.33;102757.31;4961173;29;20074;-86
2021/12/19 02:58:41;;;;;;;62.60;51.90;;;;;;;6.40;93.70;102750.56;4943995;28;20106;-85
2021/12/19 03:01:20;;;;;;;58.15;51.53;;;;;;;6.26;93.71;102738.31;4949839;28;20054;-86
2021/12/19 03:04:24;;;;;;;67.22;53.25;;;;;;;6.44;93.83;102757.44;4973443;28;20026;-85
2021/12/19 03:07:00;;;;;;;61.67;51.17;;;;;;;6.47;94.18;102742.16;4995440;28;20030;-84
2021/12/19 03:18:37;;;;;;;63.67;51.80;;;;;;;6.57;92.64;102756.88;4986445;28;20091;-84
2021/12/19 03:21:41;;;;;;;56.10;50.25;;;;;;;6.52;91.63;102749.09;4990668;23;20066;-84
2021/12/19 03:25:03;;;;;;;;;;;;;;;;;;;;;
2021/12/19 04:12:20;;;;;;;52.50;47.65;;;;;;;6.02;94.63;102661.16;5004698;23;20603;-85
2021/12/19 04:15:34;;;;;;;53.40;48.35;;;;;;;5.94;94.96;102653.28;5005050;28;20065;-85
2021/12/19 04:28:53;;;;;;;53.55;48.55;;;;;;;6.27;95.11;102696.59;4943248;29;20102;-85
2021/12/19 04:35:45;;;;;;;53.38;48.13;;;;;;;6.25;95.56;102693.16;4967290;28;20043;-85
2021/12/19 05:19:47;;;;;;;54.72;49.25;;;;;;;6.10;95.91;102594.03;4944499;29;20089;-85
2021/12/19 05:26:41;;;;;;;;;;;;;;;;;;;;;
2021/12/19 05:33:07;;;;;;;55.80;49.97;;;;;;;6.14;95.98;102577.94;4937946;29;20051;-84
2021/12/19 05:56:57;;;;;;;54.53;48.90;;;;;;;6.21;94.08;102576.38;4914011;29;20040;-86
2021/12/19 06:00:09;;;;;;;55.35;49.78;;;;;;;6.47;93.77;102606.66;4935088;29;20032;-84
2021/12/19 06:03:26;;;;;;;;;;;;;;;;;;;;;
2021/12/19 06:16:52;;;;;;;54.13;48.97;;;;;;;6.52;91.60;102597.38;4955196;28;20038;-84
2021/12/19 06:43:13;;;;;;;;;;;;;;;;;;;;;
2021/12/19 06:46:20;;;;;;;55.13;49.63;;;;;;;6.64;91.39;102578.84;4969809;29;20071;-84
2021/12/19 06:49:36;;;;;;;56.05;49.95;;;;;;;6.25;91.08;102524.50;4967049;28;20118;-86
2021/12/19 06:52:46;;;;;;;54.20;49.05;;;;;;;6.58;90.30;102574.47;4946835;29;20098;-85
2021/12/19 06:59:03;;;;;;;55.13;49.25;;;;;;;6.33;89.65;102548.50;4952757;29;20040;-84
2021/12/19 07:01:58;;;;;;;54.22;48.83;;;;;;;6.51;90.33;102560.72;4954612;29;20113;-85
2021/12/19 07:05:04;;;;;;;55.22;49.38;;;;;;;6.63;89.91;102588.19;4925407;29;20586;-86
2021/12/19 07:15:52;;;;;;;;;;;;;;;;;;;;;
2021/12/19 07:39:51;;;;;;;;;;;;;;;;;;;;;
2021/12/19 07:43:10;;;;;;;;;;;;;;;;;;;;;
2021/12/19 08:04:46;;;;;;;56.92;50.63;;;;;;;6.74;88.60;102547.47;4916379;29;20051;-86
2021/12/19 08:08:04;;;;;;;56.97;50.33;;;;;;;6.76;89.07;102550.03;4916619;29;20048;-87
2021/12/19 08:17:56;;;;;;;60.67;52.53;;;;;;;6.78;88.21;102520.25;4853160;29;20046;-86
2021/12/19 08:21:26;;;;;;;;;;;;;;;;;;;;;
2021/12/19 08:30:59;;;;;;;54.80;49.42;;;;;;;6.76;88.64;102506.56;4924223;29;20039;-86
2021/12/19 08:34:22;;;;;;;;;;;;;;;;;;;;;
2021/12/19 08:37:46;;;;;;;;;;;;;;;;;;;;;
2021/12/19 08:41:07;;;;;;;55.38;49.17;;;;;;;6.82;87.75;102491.31;4897488;29;20092;-86
2021/12/19 08:44:23;;;;;;;54.33;49.10;;;;;;;6.84;86.99;102494.75;4872875;29;20056;-84
2021/12/19 08:57:09;;;;;;;54.28;48.60;;;;;;;6.90;87.89;102489.72;4900709;29;19912;-86
2021/12/19 09:00:27;;;;;;;54.47;48.95;;;;;;;6.83;88.04;102503.28;4907139;29;20040;-85
2021/12/19 09:06:23;;;;;;;56.67;50.75;;;;;;;6.52;88.50;102441.41;4955595;29;20123;-86
2021/12/19 09:12:55;;;;;;;55.85;49.90;;;;;;;6.84;88.84;102508.44;4870413;29;20033;-85
2021/12/19 09:22:30;;;;;;;56.42;50.35;;;;;;;6.97;89.21;102480.44;5012588;23;20077;-87
2021/12/19 09:24:56;;;;;;;55.50;49.72;;;;;;;6.94;88.72;102491.50;4979383;28;20085;-86
2021/12/19 09:27:27;;;;;;;55.83;50.17;;;;;;;6.87;88.66;102453.88;4969345;28;20030;-88
2021/12/19 09:30:00;;;;;;;54.97;49.30;;;;;;;6.91;89.02;102465.88;4971684;28;20077;-89
2021/12/19 09:32:27;;;;;;;55.75;49.78;;;;;;;6.87;89.04;102469.22;4951099;28;20095;-88
2021/12/19 09:34:53;;;;;;;54.67;49.03;;;;;;;6.89;88.87;102449.66;4936736;29;20046;-88
2021/12/19 09:37:21;;;;;;;60.60;50.58;;;;;;;7.34;89.53;102480.97;4943512;28;20027;-88
2021/12/19 09:39:50;;;;;;;55.20;49.28;;;;;;;7.23;87.26;102443.28;4945270;28;20384;-88
2021/12/19 09:42:33;;;;;;;65.88;51.50;;;;;;;7.28;87.93;102437.38;4946699;28;20034;-88
2021/12/19 09:45:10;;;;;;;56.13;49.85;;;;;;;7.48;87.43;102453.84;4953366;28;20033;-88
2021/12/19 09:47:47;;;;;;;56.45;50.55;;;;;;;7.39;86.85;102469.06;4955691;28;20038;-88
2021/12/19 09:50:15;;;;;;;55.28;49.67;;;;;;;7.01;86.16;102410.56;4951308;29;20566;-87
2021/12/19 09:52:41;;;;;;;54.95;49.28;;;;;;;7.31;87.07;102458.72;4951240;28;20318;-87
2021/12/19 09:55:09;;;;;;;55.23;49.43;;;;;;;7.28;87.00;102457.84;4922858;29;20051;-88
2021/12/19 09:57:38;;;;;;;55.67;49.95;;;;;;;7.15;86.18;102437.22;4942513;29;20273;-87
2021/12/19 10:01:01;;;;;;;54.90;49.33;;;;;;;7.31;85.86;102451.06;4955036;29;20023;-88
2021/12/19 10:04:19;;;;;;;;;;;;;;;;;;;;;
2021/12/19 10:10:41;;;;;;;54.17;48.80;;;;;;;7.22;87.01;102446.69;4965040;28;20102;-87
2021/12/19 10:16:47;;;;;;;60.78;50.60;;;;;;;7.18;85.78;102428.72;4928381;29;20047;-87
2021/12/19 10:20:02;;;;;;;54.47;48.85;;;;;;;7.28;87.11;102445.03;4935289;29;20039;-87
2021/12/19 10:23:01;;;;;;;55.10;49.25;;;;;;;7.32;86.66;102429.75;4964358;28;20034;-87
2021/12/19 10:26:59;;;;;;;56.58;49.35;;;;;;;7.37;86.70;102419.56;4964930;29;20479;-88
2021/12/19 10:33:31;;;;;;;55.80;50.13;;;;;;;7.42;85.79;102421.31;4956625;29;20054;-87
2021/12/19 10:36:49;;;;;;;53.88;48.58;;;;;;;7.40;86.67;102417.88;4950605;29;20027;-86
2021/12/19 10:39:26;;;;;;;54.97;49.03;;;;;;;7.11;86.33;102357.81;4973922;28;20058;-88
2021/12/19 10:56:34;;;;;;;57.80;49.85;;;;;;;7.49;85.73;102394.06;4914947;29;20031;-86
2021/12/19 11:03:47;;;;;;;;;;;;;;;;;;;;;
2021/12/19 11:09:52;;;;;;;57.63;50.78;;;;;;;7.50;85.97;102375.31;4889723;29;20056;-88
2021/12/19 11:26:35;;;;;;;;;;;;;;;;;;;;;
2021/12/19 11:32:46;;;;;;;;;;;;;;;7.54;86.66;102369.41;4902361;29;20104;-85
2021/12/19 12:10:38;;;;;;;56.90;50.35;;;;;;;7.27;84.41;102265.03;4925098;29;20053;-86
2021/12/19 12:17:08;;;;;;;57.00;50.22;;;;;;;7.51;82.72;102255.81;4936434;29;20032;-87
2021/12/19 12:20:37;;;;;;;;;;;;;;;;;;;;;
2021/12/19 12:27:19;;;;;;;56.45;50.53;;;;;;;7.54;81.47;102245.59;4974988;28;20027;-86
2021/12/19 12:34:11;;;;;;;;;;;;;;;;;;;;;
2021/12/19 12:54:32;;;;;;;;;;;;;;;;;;;;;
2021/12/19 12:56:59;;;;;;;55.75;49.88;;;;;;;7.65;78.09;102231.19;4957431;29;20062;-87
2021/12/19 12:59:30;;;;;;;54.65;49.08;;;;;;;7.54;78.06;102218.31;4928368;29;20272;-87
2021/12/19 13:02:08;;;;;;;59.85;51.25;;;;;;;7.54;78.56;102212.31;4934591;29;20140;-87
2021/12/19 13:04:34;;;;;;;56.58;50.58;;;;;;;7.74;78.76;102231.25;4947154;28;21775;-87
2021/12/19 13:07:06;;;;;;;55.70;49.63;;;;;;;7.76;77.30;102234.72;4945276;29;20102;-86
2021/12/19 13:09:43;;;;;;;64.90;50.60;;;;;;;7.90;79.65;102241.63;4961950;29;20046;-86
2021/12/19 13:12:21;;;;;;;58.33;51.22;;;;;;;8.40;81.70;102253.88;4960524;29;20047;-87
2021/12/19 13:14:52;;;;;;;60.38;51.47;;;;;;;8.70;80.44;102242.91;4944505;29;20115;-87
2021/12/19 13:17:24;;;;;;;55.42;49.42;;;;;;;8.36;77.01;102255.53;4932257;28;20059;-87
2021/12/19 13:19:59;;;;;;;56.38;50.33;;;;;;;8.25;75.54;102240.97;4943524;29;20509;-86
2021/12/19 13:22:27;;;;;;;55.17;49.80;;;;;;;8.13;75.50;102240.06;4945680;29;20089;-88
2021/12/19 13:24:54;;;;;;;60.72;51.42;;;;;;;7.98;76.11;102243.38;4944703;29;20043;-85
2021/12/19 13:27:24;;;;;;;55.65;49.75;;;;;;;7.88;76.75;102240.75;4943451;29;20074;-86
2021/12/19 13:30:24;;;;;;;56.53;50.63;;;;;;;7.83;76.00;102220.22;4941634;29;20035;-86
2021/12/19 13:32:59;;;;;;;57.75;50.53;;;;;;;7.73;76.46;102237.25;4961367;28;20111;-87
2021/12/19 13:35:27;;;;;;;56.63;50.70;;;;;;;7.66;77.06;102234.63;4944288;29;20117;-86
2021/12/19 13:38:04;;;;;;;55.50;49.90;;;;;;;7.65;77.10;102220.09;4960532;28;20019;-87
2021/12/19 13:40:30;;;;;;;;;;;;;;;7.69;78.13;102227.81;4949308;29;20505;-87
2021/12/19 13:43:05;;;;;;;56.23;50.40;;;;;;;7.72;75.98;102222.72;4968549;28;19898;-85
2021/12/19 13:45:42;;;;;;;56.15;50.38;;;;;;;7.70;75.56;102209.03;4959687;29;20349;-85
2021/12/19 13:48:35;;;;;;;58.22;50.83;;;;;;;7.75;75.48;102227.84;4960701;29;20031;-84
2021/12/19 13:51:10;;;;;;;56.50;50.40;;;;;;;7.65;75.86;102210.69;4967961;28;20031;-84
2021/12/19 13:53:39;;;;;;;55.65;50.13;;;;;;;7.57;75.30;102197.88;4946539;28;20041;-83
2021/12/19 13:56:16;;;;;;;57.00;50.38;;;;;;;7.56;76.02;102215.78;4946326;28;20090;-84
2021/12/19 13:58:42;;;;;;;;;;;;;;;7.56;75.42;102221.75;4962343;28;20014;-83
2021/12/19 14:01:22;;;;;;;56.60;50.45;;;;;;;7.55;74.86;102212.34;4977896;28;19902;-85
2021/12/19 14:03:59;;;;;;;56.15;49.97;;;;;;;7.57;74.69;102210.66;4961881;29;20011;-84
2021/12/19 14:06:32;;;;;;;;;;;;;;;7.56;74.13;102205.53;4946889;28;20054;-85
2021/12/19 14:09:36;;;;;;;;;;;;;;;;;;;;;
2021/12/19 14:12:14;;;;;;;57.38;51.35;;;;;;;7.48;75.62;102207.16;4976575;28;20042;-85
2021/12/19 14:14:40;;;;;;;55.80;50.20;;;;;;;7.53;74.85;102220.88;4967767;28;20027;-86
2021/12/19 14:17:31;;;;;;;67.23;52.93;;;;;;;7.45;75.27;102223.38;5046999;23;21333;-88
2021/12/19 14:20:01;;;;;;;59.05;50.13;;;;;;;7.40;74.62;102209.69;4989273;28;20038;-89
2021/12/19 14:22:26;;;;;;;56.95;50.50;;;;;;;7.40;75.57;102225.88;5013292;28;20090;-89
2021/12/19 14:24:58;;;;;;;56.50;50.37;;;;;;;7.43;75.71;102225.06;4992348;28;20030;-89
2021/12/19 14:27:29;;;;;;;56.67;50.70;;;;;;;7.45;74.78;102213.13;4996338;28;20298;-88
2021/12/19 14:29:55;;;;;;;62.45;50.72;;;;;;;7.50;74.39;102225.97;4992791;28;20081;-89
2021/12/19 14:32:25;;;;;;;55.73;49.70;;;;;;;7.20;75.78;102210.34;5018874;28;20030;-87
2021/12/19 14:34:56;;;;;;;55.75;49.60;;;;;;;7.31;75.56;102220.69;5018569;28;20042;-87
2021/12/19 14:37:22;;;;;;;62.28;49.97;;;;;;;7.27;75.02;102211.28;5004853;28;20033;-89
2021/12/19 14:40:04;;;;;;;55.43;49.70;;;;;;;7.33;75.64;102220.69;5001140;28;20029;-87
2021/12/19 14:42:38;;;;;;;55.50;49.63;;;;;;;7.25;75.21;102230.84;5003150;28;20034;-88
2021/12/19 14:45:08;;;;;;;56.10;49.88;;;;;;;7.16;76.28;102235.88;4997092;28;20057;-89
2021/12/19 14:47:38;;;;;;;58.33;50.78;;;;;;;7.11;75.83;102225.63;5004460;28;20134;-89
2021/12/19 14:50:25;;;;;;;64.75;50.65;;;;;;;7.11;76.31;102232.44;5026272;28;20026;-88
2021/12/19 14:53:22;;;;;;;57.33;50.03;;;;;;;7.10;75.73;102235.84;5012175;28;20018;-84
2021/12/19 14:55:59;;;;;;;61.10;50.85;;;;;;;7.16;75.97;102243.56;5002965;28;20022;-86
2021/12/19 14:58:29;;;;;;;67.65;51.50;;;;;;;6.93;76.35;102218.59;4993892;28;20058;-86
2021/12/19 15:01:00;;;;;;;55.72;49.90;;;;;;;7.05;76.44;102239.22;4998453;28;20006;-86
2021/12/19 15:03:28;;;;;;;61.95;51.20;;;;;;;7.12;76.25;102237.56;5001477;28;20041;-86
2021/12/19 15:05:53;;;;;;;59.85;51.28;;;;;;;7.07;76.32;102239.22;4999879;28;20049;-88
2021/12/19 15:08:24;;;;;;;64.53;52.37;;;;;;;7.05;77.22;102246.88;5013848;28;20017;-85
2021/12/19 15:10:49;;;;;;;65.93;50.85;;;;;;;7.02;76.98;102251.97;4993991;28;20038;-88
2021/12/19 15:13:16;;;;;;;61.30;50.97;;;;;;;6.86;77.58;102227.94;4979838;28;20029;-88
2021/12/19 15:15:43;;;;;;;63.28;51.20;;;;;;;7.02;77.17;102246.84;4991923;28;20033;-87
2021/12/19 15:18:08;;;;;;;60.70;51.35;;;;;;;7.12;77.21;102246.94;5007943;28;20026;-88
2021/12/19 15:20:34;;;;;;;71.43;50.20;;;;;;;6.82;78.00;102225.31;4991358;28;20026;-87
2021/12/19 15:38:46;;;;;;;65.82;52.08;;;;;;;6.76;78.57;102238.03;5011142;28;20045;-87
2021/12/19 15:44:13;;;;;;;70.00;52.95;;;;;;;6.91;79.16;102266.34;5037264;23;20050;-86
2021/12/19 15:46:55;;;;;;;65.65;51.08;;;;;;;6.81;79.15;102233.81;4964881;28;20046;-87
2021/12/19 15:50:05;;;;;;;;;;;;;;;;;;;;;
2021/12/19 15:58:21;;;;;;;62.25;51.20;;;;;;;8.05;76.86;102259.66;5014432;26;20046;-86
2021/12/19 16:01:04;;;;;;;60.85;50.55;;;;;;;8.06;76.25;102289.56;4987084;28;20094;-86
2021/12/19 16:11:05;;;;;;;;;;;;;;;;;;;;;
2021/12/19 16:37:51;;;;;;;65.90;54.65;;;;;;;6.58;80.69;102300.91;4908006;29;20144;-86
2021/12/19 20:23:57;;;;;;;;;;;;;;;;;;;;;
2021/12/19 20:31:03;;;;;;;;;;;;;;;;;;;;;
2021/12/19 20:34:12;;;;;;;58.72;51.47;;;;;;;4.15;85.51;102493.47;5016904;28;20022;-89
2021/12/19 20:41:01;;;;;;;68.90;51.10;;;;;;;3.83;85.66;102500.25;5015145;28;20085;-88
2021/12/19 20:48:26;;;;;;;62.63;52.25;;;;;;;3.72;85.11;102472.81;4938592;29;20028;-87
2021/12/19 21:56:23;;;;;;;59.97;49.85;;;;;;;3.29;84.06;102517.34;5008284;28;20052;-93
2021/12/19 21:58:52;;;;;;;55.53;49.38;;;;;;;3.29;83.36;102509.72;4974058;28;20031;-92
2021/12/19 22:01:31;;;;;;;58.05;49.40;;;;;;;3.21;83.03;102490.84;4978879;28;20042;-92
2021/12/19 22:04:05;;;;;;;55.17;49.33;;;;;;;3.23;82.77;102501.91;4966059;29;20027;-90
2021/12/19 22:06:33;;;;;;;55.80;49.78;;;;;;;3.32;82.16;102521.69;4949487;29;20027;-91
2021/12/19 22:09:05;;;;;;;57.00;49.45;;;;;;;3.16;82.49;102500.00;4958770;28;20091;-91
2021/12/19 22:11:39;;;;;;;57.50;48.70;;;;;;;3.26;81.66;102535.06;4974029;28;20045;-91
2021/12/19 22:16:44;;;;;;;59.00;51.50;;;;;;;3.12;81.66;102544.84;5000766;28;20022;-93
2021/12/19 22:19:25;;;;;;;53.95;48.22;;;;;;;2.97;81.47;102508.75;4974975;28;20102;-92
2021/12/19 22:21:57;;;;;;;54.63;47.55;;;;;;;2.98;80.99;102505.41;4973285;28;20047;-91
2021/12/19 22:24:51;;;;;;;61.97;50.65;;;;;;;3.15;80.61;102528.78;4978310;28;20077;-90
2021/12/19 22:27:38;;;;;;;63.40;50.30;;;;;;;2.93;81.35;102477.31;4949137;29;20063;-91
2021/12/19 22:30:11;;;;;;;54.65;48.90;;;;;;;3.11;80.21;102527.84;4959212;28;20031;-91
2021/12/19 22:32:47;;;;;;;52.63;47.78;;;;;;;3.12;80.66;102533.78;4951744;28;20058;-92
2021/12/19 22:35:23;;;;;;;53.20;47.75;;;;;;;2.92;79.19;102495.03;4956445;28;20061;-93
2021/12/19 22:37:49;;;;;;;53.28;48.05;;;;;;;2.99;80.35;102518.16;4955234;28;20035;-92
2021/12/19 22:40:20;;;;;;;54.08;48.47;;;;;;;3.15;79.24;102537.31;4954435;28;20023;-92
2021/12/19 22:42:49;;;;;;;54.67;48.83;;;;;;;2.89;80.00;102508.50;4955859;28;20054;-92
2021/12/19 22:45:18;;;;;;;53.00;47.72;;;;;;;3.04;80.03;102520.84;4974326;28;20019;-92
2021/12/19 22:47:46;;;;;;;53.65;48.28;;;;;;;3.12;80.37;102528.69;4958301;28;20062;-90
2021/12/19 22:50:15;;;;;;;53.60;48.15;;;;;;;2.98;80.05;102529.13;4959490;28;20031;-92
2021/12/19 22:53:01;;;;;;;53.35;48.50;;;;;;;2.89;80.28;102503.44;4963995;28;20031;-91
2021/12/19 22:55:35;;;;;;;55.35;49.40;;;;;;;2.93;79.82;102524.72;4981846;28;20026;-93
2021/12/19 22:58:14;;;;;;;54.58;48.80;;;;;;;2.62;80.18;102483.94;4982168;28;20022;-92
2021/12/19 23:21:19;;;;;;;53.40;48.15;;;;;;;2.76;78.02;102519.97;4994428;28;20055;-91
2021/12/19 23:23:44;;;;;;;52.63;47.23;;;;;;;2.77;77.83;102547.13;5005406;28;20082;-91
2021/12/19 23:26:10;;;;;;;53.60;47.93;;;;;;;2.67;77.81;102553.56;4966241;28;20019;-90
2021/12/19 23:28:35;;;;;;;52.87;47.43;;;;;;;2.75;77.27;102547.88;4966750;28;20025;-91
2021/12/19 23:31:00;;;;;;;53.07;48.00;;;;;;;2.62;76.93;102536.44;5001529;23;20027;-90
2021/12/19 23:36:00;;;;;;;52.65;47.63;;;;;;;2.49;76.59;102540.25;4947442;28;20022;-92
2021/12/19 23:46:09;;;;;;;52.25;47.10;;;;;;;2.44;76.65;102541.78;4955125;28;20038;-90
2021/12/19 23:48:34;;;;;;;53.10;47.43;;;;;;;2.60;77.04;102553.31;4950680;28;20023;-91
2021/12/19 23:51:00;;;;;;;52.80;47.63;;;;;;;2.49;76.37;102545.34;4952761;29;20078;-91
2021/12/19 23:53:25;;;;;;;51.13;46.33;;;;;;;2.56;75.99;102547.25;4934934;29;20063;-91
2021/12/19 23:55:51;;;;;;;51.57;46.43;;;;;;;2.54;76.99;102554.84;4950176;29;20024;-91
2021/12/19 23:58:16;;;;;;;52.67;47.30;;;;;;;2.60;76.78;102559.25;4933662;29;20054;-91
